PWSweather.com
Personal Weather Stations
Station Observations
KNYSYRAC2
Fairmount Hills, Fairmount, NY 13219

Fairmount HillsFairmount, NY 13219

Lat: 43.03602, Lon: -76.247151

Elevation: 663

Station Type: Ambient Weather WS-2080

http://weather.cerchia.com

High Low Average
Temperature 61.1°F16.2°F 45.6°F7.6°F 52.2°F11.2°F
Dew Point 59.6°F15.3°F 37.2°F2.9°F 44.5°F6.9°F
Winds 9.8 mph WSW15.8 mph WSW 1.1 mph 1.8 mph 4.3 mph 6.9 mph
Wind Gusts 13.0 mph20.9 mph 2.2 mph3.5 mph 6.4 mph10.3 mph
Humidity 96% 59% 75%
Pressure 29.96 in1014.60 in 29.84 in1010.50 in -
Precipitation 0.49 in12.40 in - -
Hour Temp Dew Point Humidity Winds Wind Gusts Pressure Precip Precip Rate Daily Precip Total
12:00 AM 61.1°F16.2°C 59.3°F15.2°C 94% 1.5 mph WSW2.4 kmh WSW 2.2 mph3.5 kmh 29.85 in1010.8 mb 0.07 in1.8 mm 0.00 in/hr0.0 mm/hr 0.07 in1.8 mm
12:15 AM 61.1°F16.2°C 59.6°F15.3°C 95% 3.3 mph W5.3 kmh W 4.5 mph7.2 kmh 29.84 in1010.5 mb 0.11 in2.8 mm 0.16 in/hr4.1 mm/hr 0.05 in1.3 mm
12:30 AM 60.9°F16.1°C 59.5°F15.3°C 95% 1.4 mph SSW2.3 kmh SSW 3.1 mph5.0 kmh 29.85 in1010.8 mb 0.09 in2.3 mm 0.00 in/hr0.0 mm/hr 0.05 in1.3 mm
12:45 AM 60.7°F15.9°C 59.3°F15.2°C 95% 3.7 mph SW6.0 kmh SW 6.0 mph9.7 kmh 29.85 in1010.8 mb 0.09 in2.3 mm 0.00 in/hr0.0 mm/hr 0.05 in1.3 mm
01:00 AM 60.5°F15.8°C 59.1°F15.1°C 95% 2.7 mph WSW4.3 kmh WSW 4.5 mph7.2 kmh 29.86 in1011.2 mb 0.05 in1.3 mm 0.00 in/hr0.0 mm/hr 0.05 in1.3 mm
01:15 AM 60.3°F15.7°C 59.2°F15.1°C 96% 2.7 mph W4.3 kmh W 3.8 mph6.1 kmh 29.86 in1011.2 mb 0.00 in0.0 mm 0.00 in/hr0.0 mm/hr 0.05 in1.3 mm
01:30 AM 60.2°F15.7°C 59.0°F15.0°C 96% 3.8 mph WSW6.1 kmh WSW 6.0 mph9.7 kmh 29.86 in1011.2 mb 0.00 in0.0 mm 0.00 in/hr0.0 mm/hr 0.05 in1.3 mm
01:45 AM 58.9°F14.9°C 57.8°F14.3°C 96% 6.6 mph WSW10.6 kmh WSW 9.8 mph15.8 kmh 29.86 in1011.2 mb 0.00 in0.0 mm 0.00 in/hr0.0 mm/hr 0.05 in1.3 mm
02:00 AM 58.0°F14.4°C 56.6°F13.7°C 95% 7.2 mph W11.6 kmh W 9.8 mph15.8 kmh 29.86 in1011.2 mb 0.00 in0.0 mm 0.00 in/hr0.0 mm/hr 0.05 in1.3 mm
02:15 AM 57.5°F14.2°C 55.8°F13.2°C 94% 6.8 mph SW10.9 kmh SW 10.7 mph17.2 kmh 29.87 in1011.5 mb 0.01 in0.3 mm 0.04 in/hr1.0 mm/hr 0.06 in1.5 mm
02:30 AM 56.7°F13.7°C 53.8°F12.1°C 90% 9.8 mph WSW15.8 kmh WSW 13.0 mph20.9 kmh 29.86 in1011.2 mb 0.01 in0.3 mm 0.00 in/hr0.0 mm/hr 0.06 in1.5 mm
02:45 AM 56.0°F13.3°C 52.2°F11.2°C 87% 7.1 mph WSW11.4 kmh WSW 10.7 mph17.2 kmh 29.87 in1011.5 mb 0.01 in0.3 mm 0.00 in/hr0.0 mm/hr 0.06 in1.5 mm
03:00 AM 55.7°F13.2°C 51.5°F10.8°C 86% 6.8 mph SW10.9 kmh SW 7.6 mph12.2 kmh 29.87 in1011.5 mb 0.01 in0.3 mm 0.00 in/hr0.0 mm/hr 0.06 in1.5 mm
03:15 AM 55.5°F13.1°C 51.1°F10.6°C 85% 6.8 mph SW10.9 kmh SW 8.3 mph13.4 kmh 29.87 in1011.5 mb 0.00 in0.0 mm 0.00 in/hr0.0 mm/hr 0.06 in1.5 mm
03:30 AM 54.9°F12.7°C 50.2°F10.1°C 84% 5.2 mph SW8.4 kmh SW 6.9 mph11.1 kmh 29.87 in1011.5 mb 0.00 in0.0 mm 0.00 in/hr0.0 mm/hr 0.06 in1.5 mm
03:45 AM 54.9°F12.7°C 49.9°F9.9°C 83% 5.5 mph SSW8.9 kmh SSW 7.6 mph12.2 kmh 29.87 in1011.5 mb 0.00 in0.0 mm 0.00 in/hr0.0 mm/hr 0.06 in1.5 mm
04:00 AM 54.8°F12.7°C 49.4°F9.7°C 82% 5.0 mph SSW8.0 kmh SSW 8.3 mph13.4 kmh 29.88 in1011.9 mb 0.00 in0.0 mm 0.00 in/hr0.0 mm/hr 0.06 in1.5 mm
04:15 AM 54.4°F12.4°C 49.0°F9.4°C 82% 3.5 mph SW5.6 kmh SW 4.5 mph7.2 kmh 29.86 in1011.2 mb 0.00 in0.0 mm 0.00 in/hr0.0 mm/hr 0.06 in1.5 mm
04:30 AM 54.2°F12.3°C 48.5°F9.2°C 81% 3.1 mph S5.0 kmh S 5.4 mph8.7 kmh 29.87 in1011.5 mb 0.00 in0.0 mm 0.00 in/hr0.0 mm/hr 0.06 in1.5 mm
04:45 AM 54.2°F12.3°C 48.2°F9.0°C 80% 3.6 mph SSW5.8 kmh SSW 6.0 mph9.7 kmh 29.87 in1011.5 mb 0.00 in0.0 mm 0.00 in/hr0.0 mm/hr 0.06 in1.5 mm
05:00 AM 54.2°F12.3°C 48.2°F9.0°C 80% 4.8 mph S7.7 kmh S 7.6 mph12.2 kmh 29.88 in1011.9 mb 0.00 in0.0 mm 0.00 in/hr0.0 mm/hr 0.06 in1.5 mm
05:15 AM 54.2°F12.3°C 47.9°F8.8°C 79% 5.0 mph S8.0 kmh S 7.6 mph12.2 kmh 29.88 in1011.9 mb 0.00 in0.0 mm 0.00 in/hr0.0 mm/hr 0.06 in1.5 mm
05:30 AM 54.2°F12.3°C 47.9°F8.8°C 79% 4.4 mph S7.1 kmh S 5.4 mph8.7 kmh 29.88 in1011.9 mb 0.00 in0.0 mm 0.00 in/hr0.0 mm/hr 0.06 in1.5 mm
05:45 AM 54.0°F12.2°C 47.7°F8.7°C 79% 4.4 mph SSW7.1 kmh SSW 6.9 mph11.1 kmh 29.88 in1011.9 mb 0.00 in0.0 mm 0.00 in/hr0.0 mm/hr 0.06 in1.5 mm
06:00 AM 53.9°F12.2°C 47.2°F8.4°C 78% 4.0 mph SW6.4 kmh SW 4.5 mph7.2 kmh 29.88 in1011.9 mb 0.00 in0.0 mm 0.00 in/hr0.0 mm/hr 0.06 in1.5 mm
06:15 AM 53.9°F12.2°C 47.2°F8.4°C 78% 4.8 mph SSW7.7 kmh SSW 6.9 mph11.1 kmh 29.89 in1012.2 mb 0.00 in0.0 mm 0.00 in/hr0.0 mm/hr 0.06 in1.5 mm
06:30 AM 53.7°F12.1°C 47.0°F8.3°C 78% 4.3 mph S6.9 kmh S 6.9 mph11.1 kmh 29.88 in1011.9 mb 0.00 in0.0 mm 0.00 in/hr0.0 mm/hr 0.06 in1.5 mm
06:45 AM 53.5°F11.9°C 46.8°F8.2°C 78% 4.7 mph SSW7.6 kmh SSW 6.0 mph9.7 kmh 29.89 in1012.2 mb 0.00 in0.0 mm 0.00 in/hr0.0 mm/hr 0.06 in1.5 mm
07:00 AM 53.5°F11.9°C 46.8°F8.2°C 78% 3.9 mph WSW6.3 kmh WSW 5.4 mph8.7 kmh 29.89 in1012.2 mb 0.00 in0.0 mm 0.00 in/hr0.0 mm/hr 0.06 in1.5 mm
07:15 AM 53.3°F11.8°C 46.6°F8.1°C 78% 4.5 mph SW7.2 kmh SW 6.9 mph11.1 kmh 29.90 in1012.5 mb 0.00 in0.0 mm 0.00 in/hr0.0 mm/hr 0.06 in1.5 mm
07:30 AM 53.1°F11.7°C 46.5°F8.1°C 78% 4.4 mph SW7.1 kmh SW 6.0 mph9.7 kmh 29.89 in1012.2 mb 0.00 in0.0 mm 0.00 in/hr0.0 mm/hr 0.06 in1.5 mm
07:45 AM 53.0°F11.7°C 46.3°F7.9°C 78% 3.2 mph SW5.1 kmh SW 4.5 mph7.2 kmh 29.90 in1012.5 mb 0.00 in0.0 mm 0.00 in/hr0.0 mm/hr 0.06 in1.5 mm
08:00 AM 53.0°F11.7°C 46.6°F8.1°C 79% 3.2 mph WSW5.1 kmh WSW 5.4 mph8.7 kmh 29.90 in1012.5 mb 0.00 in0.0 mm 0.00 in/hr0.0 mm/hr 0.06 in1.5 mm
08:15 AM 52.6°F11.4°C 46.3°F7.9°C 79% 2.1 mph WNW3.4 kmh WNW 3.8 mph6.1 kmh 29.90 in1012.5 mb 0.00 in0.0 mm 0.00 in/hr0.0 mm/hr 0.06 in1.5 mm
08:30 AM 52.4°F11.3°C 46.4°F8.0°C 80% 1.7 mph WSW2.7 kmh WSW 2.2 mph3.5 kmh 29.91 in1012.9 mb 0.00 in0.0 mm 0.00 in/hr0.0 mm/hr 0.06 in1.5 mm
08:45 AM 52.2°F11.2°C 46.6°F8.1°C 81% 2.5 mph SW4.0 kmh SW 3.1 mph5.0 kmh 29.91 in1012.9 mb 0.00 in0.0 mm 0.00 in/hr0.0 mm/hr 0.06 in1.5 mm
09:00 AM 52.4°F11.3°C 46.4°F8.0°C 80% 3.2 mph SW5.1 kmh SW 4.5 mph7.2 kmh 29.92 in1013.2 mb 0.00 in0.0 mm 0.00 in/hr0.0 mm/hr 0.06 in1.5 mm
09:15 AM 52.6°F11.4°C 45.3°F7.4°C 76% 5.2 mph WSW8.4 kmh WSW 11.4 mph18.3 kmh 29.92 in1013.2 mb 0.00 in0.0 mm 0.00 in/hr0.0 mm/hr 0.06 in1.5 mm
09:30 AM 52.6°F11.4°C 43.8°F6.6°C 72% 3.0 mph SW4.8 kmh SW 5.4 mph8.7 kmh 29.91 in1012.9 mb 0.00 in0.0 mm 0.00 in/hr0.0 mm/hr 0.06 in1.5 mm
09:45 AM 52.6°F11.4°C 43.1°F6.2°C 70% 4.2 mph SSW6.8 kmh SSW 5.4 mph8.7 kmh 29.91 in1012.9 mb 0.00 in0.0 mm 0.00 in/hr0.0 mm/hr 0.06 in1.5 mm
10:00 AM 52.6°F11.4°C 43.1°F6.2°C 70% 3.3 mph WSW5.3 kmh WSW 5.4 mph8.7 kmh 29.91 in1012.9 mb 0.00 in0.0 mm 0.00 in/hr0.0 mm/hr 0.06 in1.5 mm
10:15 AM 52.8°F11.6°C 43.3°F6.3°C 70% 2.9 mph W4.7 kmh W 4.5 mph7.2 kmh 29.91 in1012.9 mb 0.00 in0.0 mm 0.00 in/hr0.0 mm/hr 0.06 in1.5 mm
10:30 AM 53.0°F11.7°C 43.1°F6.2°C 69% 3.7 mph W6.0 kmh W 5.4 mph8.7 kmh 29.91 in1012.9 mb 0.00 in0.0 mm 0.00 in/hr0.0 mm/hr 0.06 in1.5 mm
10:45 AM 52.6°F11.4°C 42.3°F5.7°C 68% 3.4 mph NW5.5 kmh NW 6.0 mph9.7 kmh 29.91 in1012.9 mb 0.00 in0.0 mm 0.00 in/hr0.0 mm/hr 0.06 in1.5 mm
11:00 AM 52.1°F11.2°C 41.8°F5.4°C 68% 2.3 mph NW3.7 kmh NW 3.8 mph6.1 kmh 29.91 in1012.9 mb 0.00 in0.0 mm 0.00 in/hr0.0 mm/hr 0.06 in1.5 mm
11:15 AM 52.1°F11.2°C 41.4°F5.2°C 67% 2.7 mph WSW4.3 kmh WSW 3.8 mph6.1 kmh 29.91 in1012.9 mb 0.00 in0.0 mm 0.00 in/hr0.0 mm/hr 0.06 in1.5 mm
11:30 AM 52.6°F11.4°C 41.6°F5.3°C 66% 3.1 mph WNW5.0 kmh WNW 5.4 mph8.7 kmh 29.91 in1012.9 mb 0.00 in0.0 mm 0.00 in/hr0.0 mm/hr 0.06 in1.5 mm
11:45 AM 52.4°F11.3°C 41.4°F5.2°C 66% 2.3 mph W3.7 kmh W 3.1 mph5.0 kmh 29.92 in1013.2 mb 0.00 in0.0 mm 0.00 in/hr0.0 mm/hr 0.06 in1.5 mm
12:00 PM 52.1°F11.2°C 41.4°F5.2°C 67% 2.4 mph NNW3.9 kmh NNW 4.5 mph7.2 kmh 29.91 in1012.9 mb 0.00 in0.0 mm 0.00 in/hr0.0 mm/hr 0.06 in1.5 mm
12:15 PM 51.7°F10.9°C 41.5°F5.3°C 68% 3.4 mph NNW5.5 kmh NNW 6.0 mph9.7 kmh 29.92 in1013.2 mb 0.00 in0.0 mm 0.00 in/hr0.0 mm/hr 0.06 in1.5 mm
12:30 PM 51.3°F10.7°C 40.4°F4.7°C 66% 4.6 mph NW7.4 kmh NW 6.0 mph9.7 kmh 29.92 in1013.2 mb 0.00 in0.0 mm 0.00 in/hr0.0 mm/hr 0.06 in1.5 mm
12:45 PM 51.0°F10.6°C 39.2°F4.0°C 64% 4.9 mph WNW7.9 kmh WNW 7.6 mph12.2 kmh 29.92 in1013.2 mb 0.00 in0.0 mm 0.00 in/hr0.0 mm/hr 0.06 in1.5 mm
01:00 PM 51.0°F10.6°C 38.4°F3.6°C 62% 5.1 mph NW8.2 kmh NW 7.6 mph12.2 kmh 29.92 in1013.2 mb 0.00 in0.0 mm 0.00 in/hr0.0 mm/hr 0.06 in1.5 mm
01:15 PM 50.6°F10.3°C 38.9°F3.8°C 64% 7.5 mph NW12.1 kmh NW 11.4 mph18.3 kmh 29.92 in1013.2 mb 0.00 in0.0 mm 0.00 in/hr0.0 mm/hr 0.06 in1.5 mm
01:30 PM 49.5°F9.7°C 39.8°F4.3°C 69% 7.5 mph NW12.1 kmh NW 10.7 mph17.2 kmh 29.92 in1013.2 mb 0.00 in0.0 mm 0.00 in/hr0.0 mm/hr 0.06 in1.5 mm
01:45 PM 48.3°F9.1°C 40.4°F4.7°C 74% 5.8 mph SW9.3 kmh SW 8.3 mph13.4 kmh 29.91 in1012.9 mb 0.00 in0.0 mm 0.00 in/hr0.0 mm/hr 0.06 in1.5 mm
02:00 PM 47.9°F8.8°C 40.4°F4.7°C 75% 4.8 mph S7.7 kmh S 6.0 mph9.7 kmh 29.91 in1012.9 mb 0.00 in0.0 mm 0.00 in/hr0.0 mm/hr 0.06 in1.5 mm
02:15 PM 48.5°F9.2°C 40.6°F4.8°C 74% 6.2 mph SSW10.0 kmh SSW 10.7 mph17.2 kmh 29.91 in1012.9 mb 0.00 in0.0 mm 0.00 in/hr0.0 mm/hr 0.06 in1.5 mm
02:30 PM 49.0°F9.4°C 39.7°F4.3°C 70% 4.6 mph SW7.4 kmh SW 6.9 mph11.1 kmh 29.91 in1012.9 mb 0.00 in0.0 mm 0.00 in/hr0.0 mm/hr 0.06 in1.5 mm
02:45 PM 49.4°F9.7°C 38.9°F3.8°C 67% 5.1 mph SW8.2 kmh SW 6.9 mph11.1 kmh 29.91 in1012.9 mb 0.00 in0.0 mm 0.00 in/hr0.0 mm/hr 0.06 in1.5 mm
03:00 PM 49.7°F9.8°C 38.0°F3.3°C 64% 4.9 mph S7.9 kmh S 6.0 mph9.7 kmh 29.91 in1012.9 mb 0.00 in0.0 mm 0.00 in/hr0.0 mm/hr 0.06 in1.5 mm
03:15 PM 49.9°F9.9°C 37.8°F3.2°C 63% 5.2 mph SW8.4 kmh SW 6.9 mph11.1 kmh 29.91 in1012.9 mb 0.00 in0.0 mm 0.00 in/hr0.0 mm/hr 0.06 in1.5 mm
03:30 PM 50.1°F10.1°C 37.6°F3.1°C 62% 4.1 mph SW6.6 kmh SW 5.4 mph8.7 kmh 29.91 in1012.9 mb 0.00 in0.0 mm 0.00 in/hr0.0 mm/hr 0.06 in1.5 mm
03:45 PM 50.1°F10.1°C 37.2°F2.9°C 61% 4.7 mph SW7.6 kmh SW 6.9 mph11.1 kmh 29.91 in1012.9 mb 0.00 in0.0 mm 0.00 in/hr0.0 mm/hr 0.06 in1.5 mm
04:00 PM 50.6°F10.3°C 37.7°F3.2°C 61% 4.9 mph S7.9 kmh S 6.0 mph9.7 kmh 29.91 in1012.9 mb 0.00 in0.0 mm 0.00 in/hr0.0 mm/hr 0.06 in1.5 mm
04:15 PM 51.2°F10.7°C 37.3°F2.9°C 59% 5.2 mph S8.4 kmh S 6.9 mph11.1 kmh 29.91 in1012.9 mb 0.00 in0.0 mm 0.00 in/hr0.0 mm/hr 0.06 in1.5 mm
04:30 PM 51.7°F10.9°C 37.8°F3.2°C 59% 5.5 mph SW8.9 kmh SW 7.6 mph12.2 kmh 29.91 in1012.9 mb 0.00 in0.0 mm 0.00 in/hr0.0 mm/hr 0.06 in1.5 mm
04:45 PM 52.4°F11.3°C 39.0°F3.9°C 60% 2.9 mph WSW4.7 kmh WSW 4.5 mph7.2 kmh 29.90 in1012.5 mb 0.00 in0.0 mm 0.00 in/hr0.0 mm/hr 0.06 in1.5 mm
05:00 PM 51.7°F10.9°C 38.3°F3.5°C 60% 4.1 mph SSW6.6 kmh SSW 6.0 mph9.7 kmh 29.90 in1012.5 mb 0.00 in0.0 mm 0.00 in/hr0.0 mm/hr 0.06 in1.5 mm
05:15 PM 51.0°F10.6°C 38.4°F3.6°C 62% 2.5 mph SSW4.0 kmh SSW 3.1 mph5.0 kmh 29.90 in1012.5 mb 0.00 in0.0 mm 0.00 in/hr0.0 mm/hr 0.06 in1.5 mm
05:30 PM 50.6°F10.3°C 38.9°F3.8°C 64% 2.5 mph SSW4.0 kmh SSW 4.5 mph7.2 kmh 29.91 in1012.9 mb 0.00 in0.0 mm 0.00 in/hr0.0 mm/hr 0.06 in1.5 mm
05:45 PM 50.4°F10.2°C 39.5°F4.2°C 66% 1.1 mph SSW1.8 kmh SSW 2.2 mph3.5 kmh 29.91 in1012.9 mb 0.00 in0.0 mm 0.00 in/hr0.0 mm/hr 0.06 in1.5 mm
06:00 PM 50.3°F10.2°C 40.1°F4.5°C 68% 2.1 mph S3.4 kmh S 3.1 mph5.0 kmh 29.91 in1012.9 mb 0.00 in0.0 mm 0.00 in/hr0.0 mm/hr 0.06 in1.5 mm
06:15 PM 50.1°F10.1°C 40.7°F4.8°C 70% 3.3 mph S5.3 kmh S 5.4 mph8.7 kmh 29.91 in1012.9 mb 0.00 in0.0 mm 0.00 in/hr0.0 mm/hr 0.06 in1.5 mm
06:30 PM 50.3°F10.2°C 40.9°F4.9°C 70% 4.4 mph SW7.1 kmh SW 6.9 mph11.1 kmh 29.91 in1012.9 mb 0.00 in0.0 mm 0.00 in/hr0.0 mm/hr 0.06 in1.5 mm
06:45 PM 50.3°F10.2°C 40.9°F4.9°C 70% 4.2 mph S6.8 kmh S 6.0 mph9.7 kmh 29.91 in1012.9 mb 0.00 in0.0 mm 0.00 in/hr0.0 mm/hr 0.06 in1.5 mm
07:00 PM 50.3°F10.2°C 40.9°F4.9°C 70% 4.9 mph WSW7.9 kmh WSW 7.6 mph12.2 kmh 29.92 in1013.2 mb 0.00 in0.0 mm 0.00 in/hr0.0 mm/hr 0.06 in1.5 mm
07:15 PM 50.3°F10.2°C 40.9°F4.9°C 70% 4.7 mph WSW7.6 kmh WSW 8.3 mph13.4 kmh 29.92 in1013.2 mb 0.00 in0.0 mm 0.00 in/hr0.0 mm/hr 0.06 in1.5 mm
07:30 PM 50.3°F10.2°C 40.1°F4.5°C 68% 5.6 mph WSW9.0 kmh WSW 9.2 mph14.8 kmh 29.93 in1013.5 mb 0.00 in0.0 mm 0.00 in/hr0.0 mm/hr 0.06 in1.5 mm
07:45 PM 50.3°F10.2°C 39.7°F4.3°C 67% 5.9 mph WSW9.5 kmh WSW 6.9 mph11.1 kmh 29.93 in1013.5 mb 0.00 in0.0 mm 0.00 in/hr0.0 mm/hr 0.06 in1.5 mm
08:00 PM 50.3°F10.2°C 39.7°F4.3°C 67% 5.1 mph WSW8.2 kmh WSW 9.2 mph14.8 kmh 29.93 in1013.5 mb 0.00 in0.0 mm 0.00 in/hr0.0 mm/hr 0.06 in1.5 mm
08:15 PM 50.1°F10.1°C 39.6°F4.2°C 67% 3.0 mph WSW4.8 kmh WSW 4.5 mph7.2 kmh 29.94 in1013.9 mb 0.00 in0.0 mm 0.00 in/hr0.0 mm/hr 0.06 in1.5 mm
08:30 PM 49.9°F9.9°C 39.4°F4.1°C 67% 3.9 mph SW6.3 kmh SW 6.0 mph9.7 kmh 29.94 in1013.9 mb 0.00 in0.0 mm 0.00 in/hr0.0 mm/hr 0.06 in1.5 mm
08:45 PM 49.9°F9.9°C 39.4°F4.1°C 67% 4.8 mph WSW7.7 kmh WSW 8.3 mph13.4 kmh 29.94 in1013.9 mb 0.00 in0.0 mm 0.00 in/hr0.0 mm/hr 0.06 in1.5 mm
09:00 PM 49.7°F9.8°C 39.6°F4.2°C 68% 5.0 mph WSW8.0 kmh WSW 9.2 mph14.8 kmh 29.94 in1013.9 mb 0.00 in0.0 mm 0.00 in/hr0.0 mm/hr 0.06 in1.5 mm
09:15 PM 49.5°F9.7°C 40.2°F4.6°C 70% 3.3 mph W5.3 kmh W 5.4 mph8.7 kmh 29.94 in1013.9 mb 0.00 in0.0 mm 0.00 in/hr0.0 mm/hr 0.06 in1.5 mm
09:30 PM 49.4°F9.7°C 40.0°F4.4°C 70% 3.7 mph WSW6.0 kmh WSW 5.4 mph8.7 kmh 29.94 in1013.9 mb 0.00 in0.0 mm 0.00 in/hr0.0 mm/hr 0.06 in1.5 mm
09:45 PM 48.6°F9.2°C 40.7°F4.8°C 74% 5.8 mph W9.3 kmh W 9.8 mph15.8 kmh 29.95 in1014.2 mb 0.00 in0.0 mm 0.00 in/hr0.0 mm/hr 0.06 in1.5 mm
10:00 PM 47.2°F8.4°C 41.4°F5.2°C 80% 5.7 mph W9.2 kmh W 7.6 mph12.2 kmh 29.96 in1014.6 mb 0.00 in0.0 mm 0.00 in/hr0.0 mm/hr 0.06 in1.5 mm
10:15 PM 46.5°F8.1°C 41.9°F5.5°C 84% 5.0 mph WSW8.0 kmh WSW 6.9 mph11.1 kmh 29.96 in1014.6 mb 0.00 in0.0 mm 0.00 in/hr0.0 mm/hr 0.06 in1.5 mm
10:30 PM 46.1°F7.8°C 42.2°F5.7°C 86% 4.1 mph SW6.6 kmh SW 5.4 mph8.7 kmh 29.95 in1014.2 mb 0.01 in0.3 mm 0.04 in/hr1.0 mm/hr 0.07 in1.8 mm
10:45 PM 45.8°F7.7°C 42.1°F5.6°C 87% 4.2 mph SW6.8 kmh SW 5.4 mph8.7 kmh 29.96 in1014.6 mb 0.01 in0.3 mm 0.00 in/hr0.0 mm/hr 0.07 in1.8 mm
11:00 PM 45.8°F7.7°C 42.1°F5.6°C 87% 5.0 mph SW8.0 kmh SW 6.9 mph11.1 kmh 29.95 in1014.2 mb 0.01 in0.3 mm 0.00 in/hr0.0 mm/hr 0.07 in1.8 mm
11:15 PM 45.6°F7.6°C 41.9°F5.5°C 87% 4.2 mph SW6.8 kmh SW 6.0 mph9.7 kmh 29.95 in1014.2 mb 0.01 in0.3 mm 0.00 in/hr0.0 mm/hr 0.07 in1.8 mm
11:30 PM 45.6°F7.6°C 41.9°F5.5°C 87% 4.0 mph SW6.4 kmh SW 6.0 mph9.7 kmh 29.95 in1014.2 mb 0.00 in0.0 mm 0.00 in/hr0.0 mm/hr 0.07 in1.8 mm
11:45 PM 45.8°F7.7°C 41.8°F5.4°C 86% 5.9 mph SW9.5 kmh SW 8.3 mph13.4 kmh 29.95 in1014.2 mb 0.00 in0.0 mm 0.00 in/hr0.0 mm/hr 0.07 in1.8 mm